Time;durP1;ratioP1;P1;durP2;ratioP2;P2;SDS_P1;SDS_P2;PMS_P1;PMS_P2;Temp;Humidity;BMP_temperature;BMP_pressure;BME280_temperature;BME280_humidity;BME280_pressure;Samples;Min_cycle;Max_cycle;Signal;HPM_P1;HPM_P2
2022/09/08 04:19:32;;;;;;;1.65;0.30;;;;;;;12.40;100.00;101794.28;6183177;22;20024;31
2022/09/08 05:40:05;;;;;;;1.05;0.40;;;;;;;13.48;89.22;101836.72;6190402;23;20020;31
2022/09/08 05:42:31;;;;;;;0.93;0.30;;;;;;;12.51;88.49;101677.72;6213125;23;20000;-83
2022/09/08 05:44:57;;;;;;;0.75;0.20;;;;;;;13.22;87.93;101760.75;6187738;23;20001;-85
2022/09/08 06:05:30;;;;;;;0.30;0.20;;;;;;;12.17;83.93;101582.06;6204574;23;20035;-85
2022/09/08 06:07:56;;;;;;;0.70;0.20;;;;;;;12.98;83.20;101727.69;6187138;23;20028;-85
2022/09/08 06:21:12;;;;;;;1.23;0.22;;;;;;;13.43;77.38;101733.72;6190064;23;20031;-84
2022/09/08 06:23:38;;;;;;;2.05;0.40;;;;;;;12.57;76.76;101604.06;6211957;23;20013;-84
2022/09/08 07:31:21;;;;;;;0.77;0.20;;;;;;;15.14;70.01;101869.50;6177845;23;20193;31
2022/09/08 09:19:10;;;;;;;0.43;0.20;;;;;;;16.85;54.13;101823.53;6182194;22;20028;31
2022/09/08 09:53:13;;;;;;;0.47;0.20;;;;;;;17.80;51.15;101801.81;6218667;23;20028;-84
2022/09/08 09:56:01;;;;;;;0.75;0.25;;;;;;;16.48;50.46;101567.84;6217488;23;20001;-85
2022/09/08 09:58:55;;;;;;;2.13;0.20;;;;;;;18.09;50.50;101781.22;6217964;23;20011;-85
2022/09/08 10:01:32;;;;;;;0.40;0.30;;;;;;;17.50;51.01;101747.19;6243361;23;19989;-85
2022/09/08 10:04:35;;;;;;;0.73;0.20;;;;;;;17.99;50.92;101765.41;6218307;23;19997;-86
2022/09/08 10:07:24;;;;;;;2.20;0.20;;;;;;;16.56;51.07;101615.69;6243818;23;20051;-85
2022/09/08 10:09:55;;;;;;;0.25;0.10;;;;;;;17.64;50.85;101783.28;6218258;23;20020;-84
2022/09/08 10:13:18;;;;;;;0.20;0.20;;;;;;;17.58;50.79;101774.13;6217839;23;20012;-85
2022/09/08 10:15:59;;;;;;;0.32;0.20;;;;;;;17.69;51.14;101767.13;6122732;23;20021;-85
2022/09/08 10:24:23;;;;;;;2.45;0.20;;;;;;;18.17;48.93;101772.75;6204490;23;20304;-85
2022/09/08 10:34:53;;;;;;;1.83;0.35;;;;;;;18.33;48.71;101756.88;6206271;23;20036;-84
2022/09/08 10:45:17;;;;;;;1.63;0.20;;;;;;;17.94;47.51;101688.16;6199210;23;20224;-84
2022/09/08 10:48:11;;;;;;;1.58;0.20;;;;;;;17.76;47.08;101651.72;6217558;23;20009;-84
2022/09/08 10:50:51;;;;;;;0.25;0.20;;;;;;;17.01;47.06;101504.09;6242536;23;20008;-84
2022/09/08 10:54:00;;;;;;;0.20;0.20;;;;;;;17.63;47.71;101591.13;6217264;23;20016;-85
2022/09/08 10:56:30;;;;;;;1.27;0.30;;;;;;;18.10;46.74;101645.88;6209305;23;20005;-85
2022/09/08 10:59:05;;;;;;;2.53;0.20;;;;;;;18.58;46.65;101724.09;6210776;23;20023;-84
2022/09/08 11:07:28;;;;;;;0.52;0.20;;;;;;;18.89;47.10;101721.16;6209019;23;20013;-84
2022/09/08 11:10:25;;;;;;;0.63;0.30;;;;;;;18.63;47.04;101730.50;6187330;23;19993;-85
2022/09/08 11:28:25;;;;;;;0.75;0.25;;;;;;;18.62;48.05;101701.56;6202347;23;20021;-84
2022/09/08 11:33:55;;;;;;;0.95;0.30;;;;;;;18.45;47.49;101698.66;6190441;23;20678;-81
2022/09/08 11:36:31;;;;;;;2.28;0.28;;;;;;;18.79;47.87;101699.06;6157876;23;19998;-85
2022/09/08 11:39:28;;;;;;;0.55;0.30;;;;;;;18.66;46.90;101716.41;6158090;23;20005;-84
2022/09/08 11:42:12;;;;;;;4.43;0.20;;;;;;;18.91;46.35;101699.09;6183006;23;19998;-85
2022/09/08 11:44:46;;;;;;;1.98;0.20;;;;;;;18.16;47.01;101558.63;6157586;23;19994;-84
2022/09/08 11:47:30;;;;;;;;;;;;;;;18.88;47.47;101697.69;6183356;23;20308;-84
2022/09/08 11:50:27;;;;;;;0.75;0.30;;;;;;;18.29;47.81;101591.13;6191481;23;19952;-84
2022/09/08 11:53:19;;;;;;;0.63;0.20;;;;;;;19.17;46.56;101695.97;6212626;23;20024;-84
2022/09/08 11:55:54;;;;;;;1.38;0.30;;;;;;;19.25;46.17;101706.53;6186230;23;20005;-83
2022/09/08 11:59:03;;;;;;;0.70;0.20;;;;;;;18.95;46.62;101708.47;6210163;23;20016;-85
2022/09/08 12:01:58;;;;;;;1.17;0.30;;;;;;;17.25;47.59;101470.59;6211308;23;20001;-85
2022/09/08 12:04:49;;;;;;;1.55;0.28;;;;;;;17.50;47.42;101484.09;6205500;23;19993;-84
2022/09/08 12:07:53;;;;;;;0.40;0.20;;;;;;;18.93;46.89;101718.78;6213453;23;19989;-84
2022/09/08 12:10:37;;;;;;;3.28;0.20;;;;;;;18.76;47.83;101718.59;6213509;23;19985;-82
2022/09/08 12:13:22;;;;;;;1.00;0.20;;;;;;;17.74;47.57;101542.19;6213392;23;20036;-85
2022/09/08 12:16:08;;;;;;;;;;;;;;;18.70;48.59;101712.16;6188567;23;19993;-83
2022/09/08 12:18:49;;;;;;;0.40;0.20;;;;;;;17.63;47.77;101509.47;6187039;23;19901;-83
2022/09/08 12:21:39;;;;;;;0.98;0.32;;;;;;;19.02;47.31;101692.84;6213672;23;20072;-85
2022/09/08 12:24:32;;;;;;;0.30;0.20;;;;;;;18.10;47.38;101554.09;6186412;23;20070;-84
2022/09/08 12:27:30;;;;;;;0.30;0.30;;;;;;;18.83;48.20;101694.78;6188364;23;20004;-84
2022/09/08 12:30:19;;;;;;;0.47;0.20;;;;;;;18.00;48.08;101567.44;6211881;23;20016;-85
2022/09/08 12:33:10;;;;;;;0.40;0.20;;;;;;;18.74;48.14;101691.59;6205235;23;19989;-85
2022/09/08 12:35:50;;;;;;;0.20;0.20;;;;;;;17.10;48.64;101446.47;6213526;23;20016;-84
2022/09/08 12:38:40;;;;;;;1.67;0.30;;;;;;;18.83;48.64;101661.25;6213937;23;20001;-84
2022/09/08 12:41:13;;;;;;;0.20;0.20;;;;;;;17.97;48.54;101488.94;6188666;23;20001;-84
2022/09/08 12:43:41;;;;;;;0.30;0.20;;;;;;;17.63;47.99;101482.25;6187603;23;20009;-84
2022/09/08 12:46:15;;;;;;;0.20;0.20;;;;;;;18.42;48.79;101638.34;6213116;23;20001;-84
2022/09/08 12:49:07;;;;;;;1.92;0.28;;;;;;;17.11;48.45;101398.34;6212639;23;20005;-84
2022/09/08 12:51:38;;;;;;;1.38;0.20;;;;;;;17.75;48.91;101480.44;6157106;23;20025;-84
2022/09/08 12:54:42;;;;;;;1.85;0.20;;;;;;;18.81;48.71;101619.75;6157864;23;20066;-84
2022/09/08 12:57:32;;;;;;;0.65;0.20;;;;;;;18.77;48.33;101624.81;6158224;23;19990;-84
2022/09/08 13:00:14;;;;;;;0.20;0.20;;;;;;;18.94;48.00;101622.25;6158087;23;20013;-85
2022/09/08 13:02:49;;;;;;;1.85;0.30;;;;;;;19.00;47.57;101618.59;6157841;23;20090;-84
2022/09/08 13:05:45;;;;;;;0.47;0.30;;;;;;;18.15;47.24;101458.91;6182113;23;20009;-84
2022/09/08 13:08:27;;;;;;;0.60;0.13;;;;;;;17.49;47.47;101394.53;6183271;23;20028;-85
2022/09/08 13:11:07;;;;;;;0.90;0.20;;;;;;;18.97;47.30;101616.34;6181667;23;20012;-84
2022/09/08 13:13:43;;;;;;;0.10;0.10;;;;;;;17.56;46.19;101390.66;6176016;23;20009;-84
2022/09/08 13:16:34;;;;;;;2.05;0.30;;;;;;;19.33;46.59;101611.72;6156716;23;19998;-84
2022/09/08 13:19:28;;;;;;;0.20;0.15;;;;;;;19.19;45.46;101606.50;6182725;23;20009;-83
2022/09/08 13:22:06;;;;;;;0.50;0.25;;;;;;;17.75;45.64;101372.38;6183579;23;19997;-85
2022/09/08 13:24:41;;;;;;;0.20;0.20;;;;;;;18.78;46.34;101491.00;6182789;23;20038;-84
2022/09/08 13:27:18;;;;;;;2.60;0.40;;;;;;;19.33;45.80;101598.91;6183072;23;20045;-85
2022/09/08 13:30:06;;;;;;;0.70;0.20;;;;;;;19.48;45.54;101601.16;6157919;23;19986;-84
2022/09/08 13:32:47;;;;;;;0.47;0.20;;;;;;;19.30;46.49;101590.38;6183324;23;19997;-85
2022/09/08 13:35:25;;;;;;;2.38;0.45;;;;;;;19.69;46.59;101592.38;6158158;23;20025;-83
2022/09/08 13:38:04;;;;;;;1.38;0.28;;;;;;;19.54;46.42;101575.66;6158392;23;20024;-84
2022/09/08 13:41:02;;;;;;;0.65;0.20;;;;;;;19.19;45.70;101508.28;6183216;23;20068;-84
2022/09/08 13:43:40;;;;;;;0.35;0.20;;;;;;;19.89;45.56;101574.75;6157812;23;20029;-84
2022/09/08 13:46:19;;;;;;;3.03;0.25;;;;;;;18.76;44.57;101405.88;6157960;23;20061;-84
2022/09/08 13:49:15;;;;;;;0.68;0.20;;;;;;;18.67;43.88;101404.56;6157969;23;20010;-83
2022/09/08 13:52:18;;;;;;;0.55;0.28;;;;;;;19.78;44.34;101578.34;6180522;23;20004;-84
2022/09/08 13:54:59;;;;;;;0.20;0.20;;;;;;;18.42;44.19;101371.28;6181096;23;20010;-84
2022/09/08 13:57:24;;;;;;;0.75;0.17;;;;;;;19.73;43.83;101572.78;6182239;23;20001;-83
2022/09/08 14:00:14;;;;;;;0.47;0.20;;;;;;;19.89;43.44;101563.81;6182596;23;19989;-84
2022/09/08 14:02:39;;;;;;;1.65;0.20;;;;;;;19.63;43.28;101513.28;6181251;23;20010;-84
2022/09/08 14:05:32;;;;;;;0.45;0.22;;;;;;;19.19;43.65;101448.25;6180613;23;20025;-83
2022/09/08 14:08:11;;;;;;;1.63;0.30;;;;;;;19.05;43.52;101405.97;6181022;23;20017;-84
2022/09/08 14:10:43;;;;;;;0.50;0.30;;;;;;;19.88;43.65;101567.63;6181890;23;20004;-84
2022/09/08 14:13:34;;;;;;;0.40;0.20;;;;;;;18.69;43.66;101377.91;6182170;23;19990;-84
2022/09/08 14:16:06;;;;;;;0.40;0.20;;;;;;;18.07;43.52;101344.84;6180844;23;20080;-84
2022/09/08 14:19:02;;;;;;;0.70;0.30;;;;;;;19.34;44.21;101569.75;6182243;23;20375;-84
2022/09/08 14:21:34;;;;;;;1.65;0.30;;;;;;;19.14;44.21;101570.94;6181152;23;20021;-84
2022/09/08 14:24:13;;;;;;;1.25;0.30;;;;;;;19.25;44.16;101578.28;6181251;23;20009;-84
2022/09/08 14:26:38;;;;;;;2.30;0.30;;;;;;;19.25;43.95;101574.72;6180673;23;20005;-85
2022/09/08 14:29:10;;;;;;;0.30;0.20;;;;;;;19.24;43.68;101565.72;6179837;23;19994;-83
2022/09/08 14:31:49;;;;;;;1.85;0.30;;;;;;;19.08;43.31;101571.88;6180178;23;20005;-84
2022/09/08 14:34:32;;;;;;;0.63;0.30;;;;;;;17.75;43.92;101364.22;6180588;23;20005;-83
2022/09/08 14:37:12;;;;;;;0.65;0.20;;;;;;;17.65;44.19;101338.59;6180108;23;20016;-82
2022/09/08 14:39:54;;;;;;;0.80;0.40;;;;;;;19.06;43.88;101568.56;6180025;23;19997;-85
2022/09/08 14:42:24;;;;;;;0.80;0.30;;;;;;;19.27;44.41;101569.00;6180233;23;20005;-84
2022/09/08 14:44:52;;;;;;;0.70;0.20;;;;;;;19.39;44.01;101564.38;6180396;23;19993;-85
2022/09/08 14:47:30;;;;;;;0.57;0.40;;;;;;;18.50;43.05;101419.97;6180099;23;20005;-84
2022/09/08 14:50:07;;;;;;;1.98;0.40;;;;;;;19.60;43.34;101566.50;6112924;23;1856023;-85
2022/09/08 14:52:41;;;;;;;0.68;0.20;;;;;;;19.48;42.56;101560.22;6186542;23;20005;-85
2022/09/08 14:55:32;;;;;;;0.50;0.30;;;;;;;19.04;43.01;101501.66;6213665;23;20059;-85
2022/09/08 14:58:19;;;;;;;1.08;0.30;;;;;;;19.59;43.01;101572.19;6211315;23;20001;-85
2022/09/08 15:03:31;;;;;;;0.73;0.30;;;;;;;18.28;43.46;101347.00;6203488;23;20021;-83
2022/09/08 15:05:57;;;;;;;1.48;0.20;;;;;;;18.67;43.53;101422.81;6187200;23;20005;-84
2022/09/08 15:08:28;;;;;;;0.28;0.20;;;;;;;18.80;43.84;101488.03;6212771;23;20363;-82
2022/09/08 15:11:10;;;;;;;1.83;0.25;;;;;;;19.36;44.10;101560.22;6213002;23;20009;-85
2022/09/08 15:13:41;;;;;;;2.15;0.30;;;;;;;18.75;43.63;101444.31;6210863;23;20005;-83
2022/09/08 15:16:26;;;;;;;0.55;0.30;;;;;;;19.34;43.62;101553.38;6211910;23;20012;-84
2022/09/08 15:19:10;;;;;;;0.50;0.30;;;;;;;19.06;43.93;101556.81;6211376;23;20029;-83
2022/09/08 15:21:48;;;;;;;2.42;0.30;;;;;;;18.93;44.32;101541.50;6210803;23;20001;-83
2022/09/08 15:24:37;;;;;;;0.75;0.30;;;;;;;19.00;44.22;101540.31;6185173;23;20001;-82
2022/09/08 15:27:13;;;;;;;2.47;0.20;;;;;;;19.07;43.79;101559.28;6211582;23;20005;-83
2022/09/08 15:30:13;;;;;;;0.40;0.22;;;;;;;18.58;43.34;101388.81;6185925;23;20024;-84
2022/09/08 15:35:20;;;;;;;2.83;0.40;;;;;;;19.61;43.97;101491.72;6210720;23;20009;-85
2022/09/08 15:37:59;;;;;;;1.85;0.55;;;;;;;18.80;44.39;101384.44;6212365;23;19997;-82
2022/09/08 15:40:27;;;;;;;0.20;0.20;;;;;;;18.16;45.23;101318.13;6212071;23;20012;-84
2022/09/08 15:43:14;;;;;;;0.90;0.30;;;;;;;18.31;45.36;101375.69;6186963;23;20014;-83
2022/09/08 15:46:08;;;;;;;0.75;0.30;;;;;;;19.23;45.02;101542.19;6212286;23;20024;-83
2022/09/08 15:49:01;;;;;;;0.32;0.20;;;;;;;18.91;45.36;101533.59;6212822;23;20013;-83
2022/09/08 15:56:43;;;;;;;1.27;0.10;;;;;;;18.57;45.89;101535.16;6195452;23;20019;-85
2022/09/08 16:01:53;;;;;;;2.00;0.40;;;;;;;17.02;45.70;101293.69;6194824;23;20025;-85
2022/09/08 17:38:39;;;;;;;0.30;0.20;;;;;;;16.60;55.58;101521.81;6203107;23;20036;-83
2022/09/08 17:46:40;;;;;;;0.30;0.28;;;;;;;15.34;56.86;101376.03;6197182;23;20009;-82
2022/09/08 18:02:10;;;;;;;0.82;0.40;;;;;;;15.88;61.33;101527.47;6183520;23;20011;-85
2022/09/08 18:04:36;;;;;;;4.32;0.40;;;;;;;14.45;61.60;101318.81;6156646;23;20117;-84
2022/09/08 18:07:18;;;;;;;0.70;0.30;;;;;;;14.45;63.51;101332.34;6157620;23;19993;-84
2022/09/08 18:09:49;;;;;;;3.70;0.40;;;;;;;15.71;63.51;101537.19;6182875;23;20001;-84
2022/09/08 18:12:31;;;;;;;2.15;0.40;;;;;;;15.61;64.67;101542.19;6157885;23;20017;-84
2022/09/08 18:54:26;;;;;;;1.63;0.73;;;;;;;14.74;72.52;101555.91;6188066;23;20004;-85
2022/09/08 18:56:56;;;;;;;2.08;1.00;;;;;;;13.59;72.42;101403.53;6187903;23;19993;-84
